Time;durP1;ratioP1;P1;durP2;ratioP2;P2;SDS_P1;SDS_P2;PMS_P1;PMS_P2;Temp;Humidity;BMP_temperature;BMP_pressure;BME280_temperature;BME280_humidity;BME280_pressure;Samples;Min_cycle;Max_cycle;Signal;HPM_P1;HPM_P2
2021/11/09 00:00:29;;;;;;;23.30;9.98;;;7.50;99.90;;;;;;5033124;28;20218;-76
2021/11/09 00:02:55;;;;;;;19.38;9.68;;;7.50;99.90;;;;;;5033026;28;20164;-76
2021/11/09 00:05:25;;;;;;;26.55;10.60;;;7.60;99.90;;;;;;5032680;28;20172;-76
2021/11/09 00:07:54;;;;;;;26.77;10.30;;;7.70;99.90;;;;;;5033345;28;20571;-77
2021/11/09 00:10:21;;;;;;;18.48;10.18;;;7.70;99.90;;;;;;5032862;28;20186;-77
2021/11/09 00:12:54;;;;;;;22.88;10.50;;;7.70;99.90;;;;;;5032922;28;20288;-81
2021/11/09 00:15:22;;;;;;;24.17;10.82;;;7.60;99.90;;;;;;5032864;28;20215;-77
2021/11/09 00:17:52;;;;;;;29.08;10.88;;;7.70;99.90;;;;;;5032439;28;20255;-77
2021/11/09 00:20:20;;;;;;;29.48;10.63;;;7.60;99.90;;;;;;5032611;28;20968;-77
2021/11/09 00:22:47;;;;;;;24.70;10.15;;;7.50;99.90;;;;;;5032950;28;20218;-83
2021/11/09 00:25:15;;;;;;;28.92;11.27;;;7.30;99.90;;;;;;5032739;28;20230;-77
2021/11/09 00:27:41;;;;;;;32.00;11.07;;;7.50;99.90;;;;;;5032914;28;20192;-76
2021/11/09 00:30:09;;;;;;;22.10;10.52;;;7.30;99.90;;;;;;5032540;28;20235;-77
2021/11/09 00:32:38;;;;;;;22.08;10.55;;;7.40;99.90;;;;;;5032663;28;20167;-76
2021/11/09 00:35:06;;;;;;;18.92;9.95;;;7.40;99.90;;;;;;5032692;28;20234;-76
2021/11/09 00:37:31;;;;;;;17.88;9.85;;;7.40;99.90;;;;;;5032681;28;20160;-77
2021/11/09 00:39:57;;;;;;;24.13;10.18;;;7.40;99.90;;;;;;5032520;28;20210;-76
2021/11/09 00:42:23;;;;;;;15.25;9.65;;;7.50;99.90;;;;;;5032728;28;20246;-76
2021/11/09 00:44:48;;;;;;;26.42;10.88;;;7.50;99.90;;;;;;5032927;28;20206;-76
2021/11/09 00:47:14;;;;;;;20.60;10.90;;;7.40;99.90;;;;;;5031608;28;20183;-77
2021/11/09 00:49:40;;;;;;;17.67;10.13;;;7.30;99.90;;;;;;5032189;28;20645;-77
2021/11/09 00:52:06;;;;;;;30.05;10.25;;;7.40;99.90;;;;;;5032278;28;20172;-76
2021/11/09 00:54:35;;;;;;;17.55;9.65;;;7.40;99.90;;;;;;5032293;28;20207;-77
2021/11/09 00:57:00;;;;;;;20.17;9.75;;;7.40;99.90;;;;;;5032208;28;20164;-76
2021/11/09 00:59:27;;;;;;;19.67;9.48;;;7.20;99.90;;;;;;5032271;28;20172;-76
2021/11/09 01:01:54;;;;;;;19.23;9.55;;;7.30;99.90;;;;;;5032449;28;20172;-77
2021/11/09 01:04:19;;;;;;;16.40;8.57;;;7.20;99.90;;;;;;5032333;28;20187;-78
2021/11/09 01:06:45;;;;;;;20.27;10.00;;;7.20;99.90;;;;;;5032551;28;20624;-76
2021/11/09 01:09:12;;;;;;;12.75;8.85;;;7.30;99.90;;;;;;5032113;28;20650;-76
2021/11/09 01:11:38;;;;;;;31.20;9.70;;;7.30;99.90;;;;;;5032360;28;20266;-77
2021/11/09 01:14:05;;;;;;;25.52;8.88;;;7.30;99.90;;;;;;5032261;28;20294;-77
2021/11/09 01:16:31;;;;;;;24.45;9.98;;;7.30;99.90;;;;;;5032189;28;20176;-77
2021/11/09 01:18:58;;;;;;;22.35;9.40;;;7.20;99.90;;;;;;5032246;28;20262;-77
2021/11/09 01:21:24;;;;;;;15.75;8.98;;;7.10;99.90;;;;;;5032126;28;20242;-77
2021/11/09 01:23:52;;;;;;;18.27;8.77;;;6.90;99.90;;;;;;5031918;28;20164;-77
2021/11/09 01:26:19;;;;;;;23.60;8.93;;;7.00;99.90;;;;;;5032306;28;20240;-76
2021/11/09 01:28:49;;;;;;;20.13;8.88;;;7.10;99.90;;;;;;5032041;28;20172;-76
2021/11/09 01:31:15;;;;;;;17.65;10.00;;;7.20;99.90;;;;;;5032165;28;20250;-76
2021/11/09 01:33:42;;;;;;;28.95;10.02;;;7.30;99.90;;;;;;5031471;28;20227;-76
2021/11/09 01:36:08;;;;;;;19.73;10.68;;;7.30;99.90;;;;;;5031799;28;20172;-76
2021/11/09 01:38:34;;;;;;;19.98;9.48;;;7.10;99.90;;;;;;5031752;28;20176;-77
2021/11/09 01:41:00;;;;;;;20.75;10.52;;;7.00;99.90;;;;;;5031569;28;20200;-76
2021/11/09 01:43:28;;;;;;;24.25;9.68;;;6.80;99.90;;;;;;5031683;28;20257;-76
2021/11/09 01:45:55;;;;;;;24.35;9.10;;;7.00;99.90;;;;;;5031759;28;20160;-76
2021/11/09 01:48:21;;;;;;;19.95;8.85;;;7.20;99.90;;;;;;5032172;28;20172;-79
2021/11/09 01:50:53;;;;;;;32.22;10.80;;;7.20;99.90;;;;;;5032045;28;20241;-76
2021/11/09 01:53:20;;;;;;;42.10;12.70;;;7.00;99.90;;;;;;5031642;28;20168;-77
2021/11/09 01:55:46;;;;;;;35.20;12.20;;;7.10;99.90;;;;;;5031542;28;20168;-77
2021/11/09 01:58:13;;;;;;;42.40;12.18;;;7.20;99.90;;;;;;5032391;28;20704;-78
2021/11/09 02:00:45;;;;;;;36.92;13.45;;;7.30;99.90;;;;;;5035423;28;20196;-82
2021/11/09 02:03:12;;;;;;;27.90;11.63;;;7.40;99.90;;;;;;5035377;28;20170;-77
2021/11/09 02:05:38;;;;;;;38.35;11.85;;;7.50;99.90;;;;;;5035436;28;20179;-76
2021/11/09 02:08:05;;;;;;;33.88;11.45;;;7.60;99.90;;;;;;5035335;28;20172;-76
2021/11/09 02:10:36;;;;;;;29.40;10.73;;;7.50;99.90;;;;;;5035088;28;20207;-76
2021/11/09 02:13:02;;;;;;;26.92;10.77;;;7.50;99.90;;;;;;5035326;28;20164;-76
2021/11/09 02:15:30;;;;;;;19.83;10.48;;;7.30;99.90;;;;;;5035020;28;20203;-77
2021/11/09 02:17:56;;;;;;;25.40;11.70;;;7.20;99.90;;;;;;5035083;28;20171;-76
2021/11/09 02:20:24;;;;;;;28.90;10.35;;;7.40;99.90;;;;;;5034675;28;20210;-77
2021/11/09 02:22:50;;;;;;;22.02;10.75;;;7.50;99.90;;;;;;5034607;28;20164;-77
2021/11/09 02:25:20;;;;;;;30.25;11.00;;;7.50;99.90;;;;;;5034990;28;20580;-76
2021/11/09 02:27:46;;;;;;;21.63;10.05;;;7.80;99.90;;;;;;5034880;28;20293;-76
2021/11/09 02:30:16;;;;;;;25.60;11.02;;;7.80;99.90;;;;;;5034896;28;20648;-83
2021/11/09 02:32:42;;;;;;;18.98;9.95;;;7.90;99.90;;;;;;5034337;28;20222;-77
2021/11/09 02:35:09;;;;;;;28.15;9.93;;;7.80;99.90;;;;;;5034363;28;20215;-76
2021/11/09 02:37:35;;;;;;;25.90;10.18;;;7.60;99.90;;;;;;5034765;28;20251;-76
2021/11/09 02:40:02;;;;;;;36.30;9.45;;;7.50;99.90;;;;;;5034617;28;20198;-76
2021/11/09 02:42:34;;;;;;;29.80;10.95;;;7.60;99.90;;;;;;5034662;28;20183;-78
2021/11/09 02:45:10;;;;;;;22.27;10.65;;;7.50;99.90;;;;;;5034486;28;20594;-76
2021/11/09 02:48:09;;;;;;;28.40;9.02;;;7.40;99.90;;;;;;5034681;28;20249;-76
2021/11/09 02:50:38;;;;;;;19.58;9.57;;;7.20;99.90;;;;;;5034032;28;20214;-78
2021/11/09 02:53:09;;;;;;;15.48;8.30;;;7.40;99.90;;;;;;5034566;28;20191;-76
2021/11/09 02:55:42;;;;;;;26.33;8.63;;;7.30;99.90;;;;;;5034554;28;20729;-76
2021/11/09 03:00:46;;;;;;;20.35;8.70;;;7.00;99.90;;;;;;5034384;28;20196;-76
2021/11/09 03:03:24;;;;;;;23.38;10.38;;;7.10;99.90;;;;;;5034494;28;20674;-80
2021/11/09 03:06:05;;;;;;;23.50;8.63;;;7.00;99.90;;;;;;5034233;28;20526;-77
2021/11/09 03:08:35;;;;;;;17.67;9.02;;;7.00;99.90;;;;;;5034023;28;20164;-77
2021/11/09 03:11:02;;;;;;;16.38;9.10;;;7.10;99.90;;;;;;5032088;28;20229;-79
2021/11/09 03:13:28;;;;;;;16.55;9.18;;;7.20;99.90;;;;;;5033917;28;20226;-76
2021/11/09 03:15:58;;;;;;;16.02;8.55;;;7.10;99.90;;;;;;5033995;28;20261;-76
2021/11/09 03:18:26;;;;;;;20.00;9.20;;;7.00;99.90;;;;;;5033930;28;20608;-76
2021/11/09 03:39:57;;;;;;;17.25;9.00;;;7.20;99.90;;;;;;5033696;28;20557;-77
2021/11/09 03:45:39;;;;;;;19.75;9.15;;;7.20;99.90;;;;;;5033868;28;20218;-77
2021/11/09 03:48:11;;;;;;;14.57;8.57;;;7.20;99.90;;;;;;5033292;28;20188;-77
2021/11/09 03:50:39;;;;;;;20.67;9.98;;;7.10;99.90;;;;;;5032998;28;20188;-77
2021/11/09 03:53:14;;;;;;;33.15;10.73;;;7.00;99.90;;;;;;5033355;28;20167;-77
2021/11/09 03:58:40;;;;;;;20.25;9.02;;;7.20;99.90;;;;;;5033295;28;20202;-76
2021/11/09 04:01:34;;;;;;;16.10;8.90;;;7.20;99.90;;;;;;5033183;28;20219;-76
2021/11/09 04:06:42;;;;;;;24.35;11.05;;;7.20;99.90;;;;;;5031571;28;20180;-77
2021/11/09 04:09:26;;;;;;;47.42;11.30;;;7.30;99.90;;;;;;5033167;28;20191;-84
2021/11/09 04:32:54;;;;;;;23.80;9.63;;;7.30;99.90;;;;;;5032743;28;20199;-76
2021/11/09 04:49:55;;;;;;;19.80;8.52;;;7.00;99.90;;;;;;5032431;28;20210;-76
2021/11/09 05:08:27;;;;;;;24.60;10.13;;;6.90;99.90;;;;;;5032401;28;20651;-81
2021/11/09 05:10:55;;;;;;;26.95;8.73;;;7.10;99.90;;;;;;5031927;28;20274;-76
2021/11/09 05:13:21;;;;;;;46.53;10.40;;;7.20;99.90;;;;;;5032020;28;20190;-76
2021/11/09 05:15:47;;;;;;;20.27;9.07;;;7.30;99.90;;;;;;5031842;28;20679;-76
2021/11/09 05:18:12;;;;;;;21.50;9.80;;;7.20;99.90;;;;;;5032124;28;20168;-77
2021/11/09 05:20:38;;;;;;;23.25;9.45;;;7.20;99.90;;;;;;5031905;28;20198;-76
2021/11/09 05:23:04;;;;;;;32.92;10.02;;;7.30;99.90;;;;;;5031910;28;20171;-77
2021/11/09 05:25:29;;;;;;;19.10;9.07;;;7.40;99.90;;;;;;5032047;28;20168;-84
2021/11/09 05:27:56;;;;;;;31.25;9.30;;;7.50;99.90;;;;;;5031929;28;20221;-77
2021/11/09 05:30:22;;;;;;;27.10;8.82;;;7.40;99.90;;;;;;5031626;28;20188;-77
2021/11/09 05:32:51;;;;;;;17.58;8.85;;;7.30;99.90;;;;;;5031928;28;20683;-76
2021/11/09 05:35:16;;;;;;;21.80;9.55;;;7.20;99.90;;;;;;5035566;28;20212;-76
2021/11/09 05:37:45;;;;;;;27.48;8.93;;;7.20;99.90;;;;;;5035789;28;20160;-76
2021/11/09 05:40:12;;;;;;;21.20;8.70;;;7.30;99.90;;;;;;5034970;28;20588;-78
2021/11/09 05:42:39;;;;;;;24.42;8.75;;;7.40;99.90;;;;;;5035682;28;20156;-78
2021/11/09 05:45:06;;;;;;;35.70;10.68;;;7.20;99.90;;;;;;5033694;28;20230;-76
2021/11/09 05:47:32;;;;;;;28.02;9.32;;;7.30;99.90;;;;;;5034076;28;20715;-76
2021/11/09 05:49:58;;;;;;;36.85;9.32;;;7.50;99.90;;;;;;5035197;28;20274;-76
2021/11/09 05:52:23;;;;;;;39.10;8.60;;;7.60;99.90;;;;;;5035394;28;20252;-76
2021/11/09 05:54:50;;;;;;;28.80;9.93;;;7.40;99.90;;;;;;5034941;28;20203;-76
2021/11/09 05:57:15;;;;;;;23.80;10.90;;;7.30;99.90;;;;;;5035530;28;20245;-76
2021/11/09 05:59:42;;;;;;;39.50;9.82;;;7.20;99.90;;;;;;5035229;28;20220;-76
2021/11/09 06:02:07;;;;;;;28.85;9.02;;;7.10;99.90;;;;;;5035927;28;20175;-76
2021/11/09 06:04:33;;;;;;;32.80;9.20;;;7.00;99.90;;;;;;5034747;28;20172;-76
2021/11/09 06:06:59;;;;;;;18.90;8.23;;;7.10;99.90;;;;;;5033561;28;20180;-76
2021/11/09 06:09:25;;;;;;;29.17;8.80;;;7.20;99.90;;;;;;5035006;28;20178;-77
2021/11/09 06:11:50;;;;;;;38.60;9.23;;;7.20;99.90;;;;;;5035131;28;20168;-76
2021/11/09 06:14:16;;;;;;;26.75;10.02;;;7.10;99.90;;;;;;5034994;28;20195;-76
2021/11/09 06:16:41;;;;;;;23.23;9.40;;;7.20;99.90;;;;;;5034932;28;20203;-77
2021/11/09 06:19:07;;;;;;;22.27;8.95;;;7.30;99.90;;;;;;5034715;28;20206;-76
2021/11/09 06:21:33;;;;;;;27.98;9.48;;;7.40;99.90;;;;;;5033212;28;20279;-77
2021/11/09 06:24:00;;;;;;;20.02;8.35;;;7.20;99.90;;;;;;5034506;28;20221;-77
2021/11/09 06:26:26;;;;;;;20.02;9.30;;;7.20;99.90;;;;;;5033284;28;20176;-77
2021/11/09 06:28:56;;;;;;;26.02;8.07;;;7.20;99.90;;;;;;5034161;28;20191;-76
2021/11/09 06:31:23;;;;;;;23.80;6.63;;;7.20;99.90;;;;;;5034366;28;20180;-76
2021/11/09 06:33:48;;;;;;;24.15;7.95;;;7.20;99.90;;;;;;5033956;28;20195;-76
2021/11/09 06:36:14;;;;;;;22.58;8.45;;;7.40;99.90;;;;;;5033927;28;20229;-76
2021/11/09 06:38:40;;;;;;;19.45;7.60;;;7.50;99.90;;;;;;5034212;28;20670;-83
2021/11/09 06:41:06;;;;;;;18.92;7.82;;;7.50;99.90;;;;;;5033861;28;20200;-76
2021/11/09 06:43:32;;;;;;;17.75;8.20;;;7.50;99.90;;;;;;5033922;28;20253;-76
2021/11/09 06:45:58;;;;;;;30.45;9.82;;;7.40;99.90;;;;;;5032427;28;20175;-76
2021/11/09 06:48:25;;;;;;;33.78;8.77;;;7.40;99.90;;;;;;5033944;28;20164;-77
2021/11/09 06:50:52;;;;;;;24.42;7.82;;;7.50;99.90;;;;;;5033445;28;20721;-78
2021/11/09 06:53:17;;;;;;;29.30;8.00;;;7.50;99.90;;;;;;5033979;28;20168;-79
2021/11/09 06:55:44;;;;;;;19.67;7.63;;;7.40;99.90;;;;;;5033816;28;20623;-77
2021/11/09 06:58:10;;;;;;;24.52;7.72;;;7.30;99.90;;;;;;5033772;28;20188;-77
2021/11/09 07:00:36;;;;;;;26.90;7.47;;;7.20;99.90;;;;;;5034071;28;20236;-77
2021/11/09 07:03:03;;;;;;;22.20;7.18;;;7.20;99.90;;;;;;5033634;28;20160;-77
2021/11/09 07:05:29;;;;;;;26.17;7.35;;;7.20;99.90;;;;;;5032899;28;20182;-76
2021/11/09 07:07:55;;;;;;;20.10;6.28;;;7.30;99.90;;;;;;5033385;28;20160;-76
2021/11/09 07:10:21;;;;;;;31.35;7.25;;;7.40;99.90;;;;;;5033169;28;20535;-76
2021/11/09 07:12:47;;;;;;;19.60;6.93;;;7.50;99.90;;;;;;5033489;28;20191;-75
2021/11/09 07:15:14;;;;;;;29.00;7.70;;;7.70;99.90;;;;;;5033232;28;20535;-76
2021/11/09 07:17:40;;;;;;;24.67;7.55;;;7.80;99.90;;;;;;5033262;28;20171;-76
2021/11/09 07:20:12;;;;;;;27.50;6.72;;;7.80;99.90;;;;;;5033157;28;20244;-76
2021/11/09 07:22:38;;;;;;;17.63;6.78;;;7.70;99.90;;;;;;5033274;28;20164;-77
2021/11/09 07:25:05;;;;;;;28.15;7.40;;;7.60;99.90;;;;;;5033306;28;20168;-77
2021/11/09 07:27:31;;;;;;;23.67;6.55;;;7.80;99.90;;;;;;5033265;28;20218;-75
2021/11/09 07:29:58;;;;;;;25.90;7.20;;;7.90;99.90;;;;;;5032563;28;20263;-76
2021/11/09 07:32:25;;;;;;;26.50;6.85;;;7.90;99.90;;;;;;5033057;28;20264;-76
2021/11/09 07:34:51;;;;;;;23.42;8.23;;;7.80;99.90;;;;;;5032355;28;20261;-76
2021/11/09 07:37:17;;;;;;;31.02;8.98;;;8.10;99.90;;;;;;5031299;28;20195;-81
2021/11/09 07:39:43;;;;;;;17.10;6.80;;;8.20;99.90;;;;;;5033149;28;20187;-76
2021/11/09 07:42:10;;;;;;;32.95;6.85;;;8.10;99.90;;;;;;5032931;28;20947;-78
2021/11/09 07:44:36;;;;;;;18.77;6.93;;;8.20;99.90;;;;;;5033288;28;20168;-76
2021/11/09 07:47:03;;;;;;;32.42;10.48;;;8.30;99.90;;;;;;5032664;28;20168;-77
2021/11/09 07:49:29;;;;;;;24.98;8.75;;;8.20;99.90;;;;;;5032306;28;20168;-80
2021/11/09 07:51:55;;;;;;;33.13;8.50;;;8.30;99.90;;;;;;5032360;28;20552;-78
2021/11/09 07:54:27;;;;;;;14.05;7.75;;;8.30;99.90;;;;;;5032595;28;20676;-83
2021/11/09 07:57:01;;;;;;;30.83;7.78;;;8.30;99.90;;;;;;5032812;28;20164;-77
2021/11/09 08:00:20;;;;;;;36.10;7.57;;;8.30;99.90;;;;;;5033003;28;20184;-77
2021/11/09 08:02:26;;;;;;;27.27;8.35;;;8.40;99.90;;;;;;5026228;28;20179;-77
2021/11/09 08:05:04;;;;;;;39.40;8.57;;;8.40;99.90;;;;;;5032190;28;20175;-80
2021/11/09 08:07:33;;;;;;;23.27;8.60;;;8.50;99.90;;;;;;5021352;28;20202;-79
2021/11/09 08:10:00;;;;;;;35.65;9.65;;;8.60;99.90;;;;;;5027714;28;20884;-80
2021/11/09 08:12:25;;;;;;;25.88;7.03;;;8.70;99.90;;;;;;5030359;28;20585;-80
2021/11/09 08:14:52;;;;;;;32.90;8.38;;;8.80;99.90;;;;;;5030446;28;20203;-83
2021/11/09 08:17:18;;;;;;;23.92;6.68;;;8.90;99.90;;;;;;5028917;28;20178;-83
2021/11/09 08:19:44;;;;;;;22.55;7.07;;;9.00;99.90;;;;;;5031555;28;20703;-77
2021/11/09 08:22:10;;;;;;;24.35;6.43;;;9.00;99.90;;;;;;5031240;28;20176;-82
2021/11/09 08:24:36;;;;;;;24.27;7.88;;;9.00;99.90;;;;;;5032453;28;20289;-82
2021/11/09 08:27:06;;;;;;;17.88;6.25;;;8.90;99.90;;;;;;5029653;28;20258;-80
2021/11/09 08:29:32;;;;;;;24.27;6.45;;;8.90;99.90;;;;;;5022855;28;20202;-84
2021/11/09 08:31:59;;;;;;;17.40;7.47;;;8.90;99.90;;;;;;5026239;28;20180;-82
2021/11/09 08:34:28;;;;;;;14.90;6.10;;;9.10;99.90;;;;;;5025932;28;20212;-84
2021/11/09 08:36:56;;;;;;;23.63;7.80;;;9.20;99.90;;;;;;5031681;28;20163;-84
2021/11/09 08:39:33;;;;;;;29.90;7.28;;;9.30;99.90;;;;;;5031759;28;20208;-83
2021/11/09 08:44:32;;;;;;;12.73;5.28;;;9.40;99.90;;;;;;5030719;28;20180;-80
2021/11/09 08:47:00;;;;;;;10.63;5.60;;;9.30;99.90;;;;;;5029889;28;20168;-82
2021/11/09 08:49:29;;;;;;;25.08;7.00;;;9.20;99.90;;;;;;5028574;28;20175;-85
2021/11/09 08:51:57;;;;;;;14.80;6.15;;;9.30;99.90;;;;;;5031730;28;20164;-84
2021/11/09 08:54:34;;;;;;;16.25;6.43;;;9.20;99.90;;;;;;5031725;28;20210;-80
2021/11/09 09:05:06;;;;;;;27.77;5.82;;;9.10;99.90;;;;;;5029756;28;20198;-76
2021/11/09 09:07:33;;;;;;;18.65;5.75;;;9.00;99.90;;;;;;5032244;28;20176;-82
2021/11/09 09:10:00;;;;;;;24.50;6.05;;;9.00;99.90;;;;;;5035495;28;20267;-87
2021/11/09 09:12:26;;;;;;;14.93;5.65;;;9.20;99.90;;;;;;5036459;28;20250;-76
2021/11/09 09:14:53;;;;;;;17.75;6.05;;;9.30;99.90;;;;;;5033854;28;20199;-76
2021/11/09 09:17:20;;;;;;;21.77;6.65;;;9.40;99.90;;;;;;5035151;28;20620;-79
2021/11/09 09:20:11;;;;;;;25.00;5.97;;;9.40;99.90;;;;;;5036450;28;20656;-82
2021/11/09 09:22:40;;;;;;;24.45;6.80;;;9.40;99.90;;;;;;5035149;28;20190;-77
2021/11/09 09:55:46;;;;;;;16.05;7.13;;;10.20;99.90;;;;;;4996459;28;20684;-83
2021/11/09 09:58:11;;;;;;;25.42;6.13;;;10.40;99.90;;;;;;5023389;28;20192;-79
2021/11/09 10:00:39;;;;;;;22.58;7.38;;;10.40;99.90;;;;;;5035367;28;20188;-80
2021/11/09 10:03:06;;;;;;;24.63;6.40;;;10.60;99.90;;;;;;5034476;28;20168;-77
2021/11/09 10:05:38;;;;;;;29.70;7.30;;;10.70;99.90;;;;;;5033834;28;20191;-76
2021/11/09 10:08:22;;;;;;;27.30;6.65;;;10.80;99.90;;;;;;5034021;28;20571;-79
2021/11/09 10:10:48;;;;;;;21.88;5.72;;;10.80;99.90;;;;;;5033973;28;20191;-76
2021/11/09 10:13:20;;;;;;;13.07;5.38;;;10.80;99.90;;;;;;5034988;28;20243;-75
2021/11/09 10:15:54;;;;;;;16.52;5.32;;;10.70;99.90;;;;;;5035088;28;20294;-76
2021/11/09 10:18:21;;;;;;;13.80;5.30;;;10.70;99.90;;;;;;5035075;28;20191;-76
2021/11/09 10:20:57;;;;;;;19.35;5.45;;;10.80;99.90;;;;;;5034098;28;20196;-75
2021/11/09 10:23:25;;;;;;;14.52;6.07;;;10.90;99.90;;;;;;5035268;28;20268;-76
2021/11/09 10:25:54;;;;;;;20.00;5.90;;;10.70;99.90;;;;;;5034213;28;20159;-76
2021/11/09 10:28:23;;;;;;;19.65;6.30;;;10.70;99.90;;;;;;5033820;28;20258;-76
2021/11/09 10:30:55;;;;;;;24.40;7.05;;;10.70;99.90;;;;;;5034309;28;20648;-76
2021/11/09 10:33:24;;;;;;;26.63;6.60;;;10.80;99.90;;;;;;5034219;28;20191;-76
2021/11/09 10:35:51;;;;;;;21.77;5.55;;;11.00;99.90;;;;;;5034442;28;20246;-76
2021/11/09 10:38:17;;;;;;;18.27;5.38;;;11.10;99.90;;;;;;5034891;28;20160;-75
2021/11/09 10:40:48;;;;;;;31.75;6.82;;;11.10;99.90;;;;;;5034281;28;20671;-76
2021/11/09 10:43:15;;;;;;;25.35;6.10;;;11.20;99.90;;;;;;5034706;28;20267;-76
2021/11/09 10:45:41;;;;;;;21.67;5.75;;;11.20;99.90;;;;;;5034716;28;20160;-76
2021/11/09 10:48:10;;;;;;;25.98;6.00;;;11.20;99.90;;;;;;5034711;28;20620;-76
2021/11/09 10:50:43;;;;;;;25.20;5.57;;;11.20;99.90;;;;;;5034139;28;20184;-76
2021/11/09 10:53:28;;;;;;;17.63;6.13;;;11.40;99.90;;;;;;5032836;28;20171;-76
2021/11/09 10:58:56;;;;;;;20.02;4.30;;;11.40;99.90;;;;;;5034337;28;20255;-76
2021/11/09 11:04:09;;;;;;;15.75;4.05;;;11.50;99.90;;;;;;5034357;28;20176;-76
2021/11/09 11:06:42;;;;;;;14.63;4.80;;;11.40;99.90;;;;;;5033972;28;20560;-75
2021/11/09 11:09:11;;;;;;;19.10;4.13;;;11.30;99.90;;;;;;5034030;28;20595;-75
2021/11/09 11:11:45;;;;;;;12.27;3.97;;;11.30;99.90;;;;;;5033682;28;20283;-76
2021/11/09 11:14:15;;;;;;;13.20;4.05;;;11.40;99.90;;;;;;5034099;28;20228;-76
2021/11/09 11:16:54;;;;;;;20.65;4.15;;;11.40;99.90;;;;;;5033851;28;20619;-76
2021/11/09 11:19:33;;;;;;;12.23;4.40;;;11.50;99.90;;;;;;5033966;28;20164;-76
2021/11/09 11:22:00;;;;;;;24.88;5.35;;;11.40;99.90;;;;;;5033996;28;20167;-76
2021/11/09 11:24:26;;;;;;;13.95;4.38;;;11.50;99.90;;;;;;5032025;28;20175;-76
2021/11/09 11:26:54;;;;;;;24.55;4.65;;;11.40;99.90;;;;;;5033659;28;20176;-76
2021/11/09 11:29:22;;;;;;;12.38;4.53;;;11.50;99.90;;;;;;5033806;28;20160;-76
2021/11/09 11:31:49;;;;;;;18.02;4.47;;;11.50;99.90;;;;;;5033015;28;20172;-75
2021/11/09 11:34:20;;;;;;;16.63;4.80;;;11.60;99.90;;;;;;5033529;28;20298;-76
2021/11/09 11:36:49;;;;;;;12.05;4.00;;;11.80;99.90;;;;;;5033456;28;20160;-76
2021/11/09 11:39:15;;;;;;;25.70;4.18;;;11.80;99.90;;;;;;5032956;28;20266;-76
2021/11/09 11:41:45;;;;;;;31.08;5.20;;;11.70;99.90;;;;;;5033040;28;20172;-77
2021/11/09 11:44:13;;;;;;;18.10;5.38;;;11.90;99.90;;;;;;5033503;28;20679;-76
2021/11/09 11:46:38;;;;;;;26.40;5.47;;;11.90;99.90;;;;;;5033471;28;20182;-76
2021/11/09 11:49:12;;;;;;;14.13;3.42;;;11.90;99.90;;;;;;5033407;28;20251;-76
2021/11/09 11:51:44;;;;;;;15.15;3.42;;;11.90;99.90;;;;;;5033688;28;20172;-75
2021/11/09 11:54:11;;;;;;;10.77;3.97;;;11.90;99.90;;;;;;5033024;28;20191;-76
2021/11/09 11:56:41;;;;;;;29.77;4.35;;;11.80;99.90;;;;;;5033342;28;20250;-75
2021/11/09 11:59:27;;;;;;;17.60;3.47;;;11.90;99.90;;;;;;5033765;28;20179;-75
2021/11/09 12:01:56;;;;;;;19.73;3.63;;;11.90;99.90;;;;;;5025436;28;20194;-76
2021/11/09 12:04:40;;;;;;;24.73;4.10;;;11.90;99.90;;;;;;5033055;28;20171;-75
2021/11/09 12:07:08;;;;;;;18.30;3.55;;;11.90;99.90;;;;;;5031155;28;21987;-76
2021/11/09 12:09:38;;;;;;;32.42;5.95;;;11.90;99.90;;;;;;5032404;28;20184;-76
2021/11/09 12:12:22;;;;;;;22.27;4.57;;;12.00;99.90;;;;;;5032461;28;20631;-76
2021/11/09 12:14:56;;;;;;;22.52;3.92;;;12.20;99.90;;;;;;5031431;28;20646;-75
2021/11/09 12:17:42;;;;;;;15.40;4.30;;;12.30;99.90;;;;;;5032711;28;20161;-75
2021/11/09 12:20:14;;;;;;;20.77;3.67;;;12.30;99.90;;;;;;5032716;28;20187;-76
2021/11/09 12:22:48;;;;;;;11.27;4.55;;;12.30;99.90;;;;;;5032594;28;20171;-76
2021/11/09 12:25:38;;;;;;;25.73;5.38;;;12.40;99.90;;;;;;5032974;28;20239;-76
2021/11/09 12:28:13;;;;;;;19.75;4.25;;;12.50;99.90;;;;;;5032652;28;20164;-77
2021/11/09 12:30:44;;;;;;;14.80;3.35;;;12.50;99.90;;;;;;5032357;28;20187;-76
2021/11/09 12:33:16;;;;;;;25.38;4.00;;;12.50;99.90;;;;;;5032147;28;20183;-76
2021/11/09 12:35:48;;;;;;;18.45;3.47;;;12.50;99.90;;;;;;5032730;28;20214;-77
2021/11/09 12:38:21;;;;;;;11.50;3.60;;;12.50;99.90;;;;;;5032303;28;20241;-77
2021/11/09 12:40:54;;;;;;;24.50;3.95;;;12.50;99.90;;;;;;5032078;28;20196;-79
2021/11/09 12:43:28;;;;;;;9.32;3.50;;;12.30;99.90;;;;;;5032170;28;20183;-77
2021/11/09 12:46:23;;;;;;;7.18;3.15;;;12.40;99.90;;;;;;5031700;28;20183;-77
2021/11/09 12:48:55;;;;;;;10.85;3.33;;;12.50;99.90;;;;;;5032326;28;20179;-77
2021/11/09 12:51:30;;;;;;;16.05;4.32;;;12.60;99.90;;;;;;5032064;28;20194;-77
2021/11/09 12:54:03;;;;;;;20.98;4.80;;;12.60;99.90;;;;;;5031931;28;20178;-77
2021/11/09 12:56:45;;;;;;;16.27;4.30;;;12.80;99.90;;;;;;5032072;28;20172;-77
2021/11/09 12:59:20;;;;;;;20.25;4.78;;;12.90;99.90;;;;;;5031870;28;20178;-77
2021/11/09 13:04:53;;;;;;;19.42;4.30;;;13.40;99.90;;;;;;5010203;28;20608;-77
2021/11/09 13:10:00;;;;;;;20.70;4.85;;;13.80;99.90;;;;;;5031971;28;20278;-77
2021/11/09 13:12:32;;;;;;;15.85;6.10;;;14.00;99.90;;;;;;5031702;28;20167;-80
2021/11/09 13:14:59;;;;;;;27.80;5.55;;;13.90;99.90;;;;;;5031458;28;20306;-77
2021/11/09 13:17:41;;;;;;;23.85;6.38;;;14.10;99.90;;;;;;5031950;28;20179;-77
2021/11/09 13:23:00;;;;;;;17.60;4.75;;;14.10;99.90;;;;;;5031914;28;20179;-78
2021/11/09 13:25:41;;;;;;;20.00;4.57;;;14.10;99.90;;;;;;5030725;28;20267;-78
2021/11/09 13:28:24;;;;;;;22.38;6.15;;;14.10;99.90;;;;;;5031768;28;20237;-77
2021/11/09 13:30:59;;;;;;;22.67;4.88;;;14.40;99.90;;;;;;5031835;28;20183;-78
2021/11/09 13:33:26;;;;;;;31.55;4.75;;;14.20;99.90;;;;;;5031699;28;20187;-76
2021/11/09 13:35:53;;;;;;;18.35;5.00;;;14.40;99.90;;;;;;5031360;28;20208;-76
2021/11/09 13:38:23;;;;;;;19.98;5.03;;;14.20;99.90;;;;;;5032119;28;20179;-77
2021/11/09 13:40:58;;;;;;;13.68;5.10;;;14.30;99.90;;;;;;5031691;28;20196;-76
2021/11/09 13:43:51;;;;;;;26.27;5.53;;;14.30;99.90;;;;;;5030562;28;20534;-76
2021/11/09 13:46:34;;;;;;;16.60;4.90;;;14.30;99.90;;;;;;5029927;28;20698;-76
2021/11/09 13:49:03;;;;;;;14.07;5.05;;;14.10;99.90;;;;;;5031421;28;20175;-76
2021/11/09 13:51:39;;;;;;;27.05;5.38;;;14.20;99.90;;;;;;5031508;28;20188;-76
2021/11/09 13:54:14;;;;;;;19.83;4.55;;;14.20;99.90;;;;;;5032015;28;20198;-76
2021/11/09 13:56:45;;;;;;;32.97;6.20;;;14.30;99.90;;;;;;5035691;28;20191;-77
2021/11/09 13:59:12;;;;;;;15.32;5.50;;;14.00;99.90;;;;;;5035366;28;20184;-76
2021/11/09 14:02:11;;;;;;;18.02;5.22;;;13.90;99.90;;;;;;5035277;28;20163;-76
2021/11/09 14:05:01;;;;;;;12.05;4.63;;;13.90;99.90;;;;;;5035251;28;20160;-76
2021/11/09 14:18:23;;;;;;;17.05;5.38;;;13.90;99.90;;;;;;5033834;28;20172;-76
2021/11/09 14:21:01;;;;;;;24.48;4.97;;;13.70;99.90;;;;;;5034838;28;20667;-77
2021/11/09 14:23:39;;;;;;;13.27;5.20;;;13.70;99.90;;;;;;5034943;28;20655;-76
2021/11/09 14:26:22;;;;;;;12.05;5.20;;;13.90;99.90;;;;;;5034259;28;20175;-76
2021/11/09 14:28:50;;;;;;;18.60;6.22;;;13.70;99.90;;;;;;5034726;28;20172;-76
2021/11/09 14:31:26;;;;;;;27.52;7.15;;;13.70;99.90;;;;;;5034535;28;20187;-76
2021/11/09 14:34:10;;;;;;;30.98;6.50;;;13.70;99.90;;;;;;5034420;28;20269;-77
2021/11/09 14:36:36;;;;;;;18.30;5.95;;;13.70;99.90;;;;;;5034170;28;20234;-76
2021/11/09 14:39:07;;;;;;;17.65;6.95;;;13.70;99.90;;;;;;5034131;28;20234;-76
2021/11/09 14:41:38;;;;;;;23.45;5.65;;;13.60;99.90;;;;;;5034439;28;20231;-79
2021/11/09 14:44:04;;;;;;;21.77;6.13;;;13.60;99.90;;;;;;5034462;28;20172;-76
2021/11/09 14:46:39;;;;;;;21.00;6.25;;;13.50;99.90;;;;;;5034523;28;20716;-78
2021/11/09 14:49:22;;;;;;;18.25;5.18;;;13.60;99.90;;;;;;5034473;28;20167;-76
2021/11/09 14:51:51;;;;;;;17.55;6.22;;;13.60;99.90;;;;;;5034600;28;20293;-77
2021/11/09 14:54:18;;;;;;;27.80;6.63;;;13.50;99.90;;;;;;5033567;28;20208;-76
2021/11/09 14:56:44;;;;;;;15.13;6.85;;;13.40;99.90;;;;;;5033679;28;20168;-76
2021/11/09 14:59:14;;;;;;;26.05;6.13;;;13.40;99.90;;;;;;5034459;28;20520;-76
2021/11/09 15:02:04;;;;;;;18.20;6.22;;;13.40;99.90;;;;;;5033731;28;20259;-77
2021/11/09 15:04:40;;;;;;;26.92;6.03;;;13.50;99.90;;;;;;5033532;28;20167;-78
2021/11/09 15:10:02;;;;;;;28.25;6.20;;;13.20;99.90;;;;;;5033496;28;20195;-77
2021/11/09 15:32:08;;;;;;;30.40;7.97;;;13.10;99.90;;;;;;5033675;28;20186;-81
2021/11/09 15:39:47;;;;;;;26.67;9.27;;;12.80;99.90;;;;;;5032937;28;20202;-76
2021/11/09 15:42:13;;;;;;;38.40;9.63;;;12.90;99.90;;;;;;5033019;28;20259;-76
2021/11/09 15:44:40;;;;;;;25.60;8.05;;;12.90;99.90;;;;;;5032881;28;20686;-76
2021/11/09 15:47:06;;;;;;;22.65;8.60;;;12.80;99.90;;;;;;5032822;28;20168;-76
2021/11/09 15:49:31;;;;;;;17.70;6.53;;;12.70;99.90;;;;;;5032802;28;20271;-76